Pennville, Indiana
Current Conditions -  °F | °C
As of 1:53 AM on Friday 28 Nov 2014 (Local Time) from KMIE Reporting Station
Overcast Overcast  
Wind Chill: -10°   Ceiling: 3800
Heat Index: -6°   Visibility: 10mi
Dew Point: -9°   Wind: 6mph
Humidity: 75%   Direction: 280°W
Pressure: 30.36"   Gusts: NA
Location:  40.49°N, 85.15°W
Report Text: KMIE 280653Z AUTO 28005KT 10SM OVC038 M06/M09 A3036 RMK AO2 SLP288 T10561094
Loading
Personal Weather Stations






























Interactive Weather Map New forecast layout! Learn more

10-Day Weather Forecast

Advertisements
Track Severe Weather on mobile